Time;durP1;ratioP1;P1;durP2;ratioP2;P2;SDS_P1;SDS_P2;PMS_P1;PMS_P2;Temp;Humidity;BMP_temperature;BMP_pressure;BME280_temperature;BME280_humidity;BME280_pressure;Samples;Min_cycle;Max_cycle;Signal;HPM_P1;HPM_P2
2022/08/10 00:00:30;;;;;;;3.08;1.20;;;25.40;63.20;;;;;;5032997;28;20032;-26
2022/08/10 00:02:58;;;;;;;4.15;1.27;;;25.40;63.20;;;;;;5033254;28;20152;-27
2022/08/10 00:05:25;;;;;;;5.20;1.40;;;25.40;63.30;;;;;;5033233;28;20024;-26
2022/08/10 00:07:51;;;;;;;3.75;1.40;;;25.40;63.30;;;;;;5033115;28;20021;-26
2022/08/10 00:10:20;;;;;;;5.88;1.38;;;25.40;63.30;;;;;;5032942;28;20032;-26
2022/08/10 00:12:45;;;;;;;4.10;1.33;;;25.30;63.40;;;;;;5032599;28;20121;-27
2022/08/10 00:15:13;;;;;;;2.33;1.30;;;25.30;63.40;;;;;;5033050;28;20065;-26
2022/08/10 00:17:39;;;;;;;8.20;1.40;;;25.30;63.50;;;;;;5033071;28;20036;-26
2022/08/10 00:20:06;;;;;;;6.75;1.33;;;25.30;63.60;;;;;;5032545;28;20116;-26
2022/08/10 00:22:31;;;;;;;4.82;1.40;;;25.30;63.60;;;;;;5033257;28;20052;-26
2022/08/10 00:24:58;;;;;;;6.85;1.42;;;25.30;63.60;;;;;;5032970;28;20061;-26
2022/08/10 00:27:24;;;;;;;3.17;1.30;;;25.20;63.70;;;;;;5032650;28;20022;-26
2022/08/10 00:29:51;;;;;;;3.17;1.20;;;25.20;63.70;;;;;;5032689;28;20065;-26
2022/08/10 00:32:17;;;;;;;4.78;1.17;;;25.20;63.80;;;;;;5032761;28;20112;-26
2022/08/10 00:34:42;;;;;;;7.05;1.33;;;25.10;63.70;;;;;;5032704;28;20602;-26
2022/08/10 00:37:08;;;;;;;2.03;1.20;;;25.10;63.70;;;;;;5032522;28;20398;-26
2022/08/10 00:39:34;;;;;;;3.38;1.42;;;25.20;63.80;;;;;;5032392;28;20075;-26
2022/08/10 00:41:59;;;;;;;5.43;1.70;;;25.10;63.70;;;;;;5032846;28;20026;-26
2022/08/10 00:44:25;;;;;;;4.80;1.50;;;25.10;63.70;;;;;;5032510;28;20092;-26
2022/08/10 00:46:51;;;;;;;3.45;1.30;;;25.10;63.80;;;;;;5032393;28;20074;-26
2022/08/10 00:49:16;;;;;;;3.45;1.30;;;25.10;63.80;;;;;;5032118;28;20041;-26
2022/08/10 00:51:42;;;;;;;5.18;1.48;;;25.00;63.70;;;;;;5032359;28;20035;-26
2022/08/10 00:54:08;;;;;;;3.75;1.50;;;25.00;63.80;;;;;;5032376;28;20533;-26
2022/08/10 00:56:35;;;;;;;4.53;1.52;;;25.00;63.80;;;;;;5032196;28;20398;-26
2022/08/10 00:59:01;;;;;;;5.32;1.58;;;25.00;63.90;;;;;;5031995;28;20106;-27
2022/08/10 01:01:27;;;;;;;5.75;1.40;;;25.00;63.90;;;;;;5032241;28;20475;-26
2022/08/10 01:03:52;;;;;;;4.47;1.70;;;25.00;64.00;;;;;;5032207;28;20092;-26
2022/08/10 01:06:46;;;;;;;2.95;1.40;;;25.00;64.00;;;;;;5032149;28;20029;-26
2022/08/10 01:09:22;;;;;;;6.60;1.83;;;25.00;64.10;;;;;;5031823;28;20104;-26
2022/08/10 01:11:57;;;;;;;3.45;1.40;;;25.00;64.10;;;;;;5032406;28;20379;-26
2022/08/10 01:14:47;;;;;;;3.97;1.50;;;24.90;64.10;;;;;;5032097;28;20486;-26
2022/08/10 01:17:33;;;;;;;3.95;1.40;;;24.90;64.20;;;;;;5031940;28;20025;-26
2022/08/10 01:20:16;;;;;;;3.78;1.60;;;24.90;64.20;;;;;;5031715;28;20021;-26
2022/08/10 01:23:02;;;;;;;3.22;1.50;;;24.90;64.30;;;;;;5031525;28;20390;-26
2022/08/10 01:25:55;;;;;;;3.88;1.50;;;24.90;64.40;;;;;;5031962;28;20383;-27
2022/08/10 01:28:24;;;;;;;2.65;1.20;;;24.80;64.40;;;;;;5032066;28;20439;-26
2022/08/10 01:30:54;;;;;;;3.05;1.67;;;24.80;64.50;;;;;;5031889;28;20025;-26
2022/08/10 01:33:26;;;;;;;1.35;1.10;;;24.80;64.60;;;;;;5031915;28;20029;-27
2022/08/10 01:35:58;;;;;;;3.22;1.30;;;24.70;64.60;;;;;;5031836;28;20386;-26
2022/08/10 01:38:28;;;;;;;3.95;1.25;;;24.80;64.70;;;;;;5031694;28;20029;-26
2022/08/10 01:41:03;;;;;;;5.60;1.40;;;24.70;64.70;;;;;;5031622;28;20018;-26
2022/08/10 01:43:32;;;;;;;6.13;1.20;;;24.70;64.80;;;;;;5031777;28;20558;-27
2022/08/10 01:46:01;;;;;;;1.80;1.10;;;24.70;64.80;;;;;;5031687;28;20095;-26
2022/08/10 01:48:32;;;;;;;2.28;1.30;;;24.70;64.90;;;;;;5031413;28;20457;-26
2022/08/10 01:51:20;;;;;;;2.97;1.48;;;24.70;64.90;;;;;;5031908;28;20029;-26
2022/08/10 01:53:52;;;;;;;2.55;1.15;;;24.60;64.90;;;;;;5031735;28;20026;-26
2022/08/10 01:56:20;;;;;;;2.45;1.17;;;24.70;65.00;;;;;;5031709;28;20079;-26
2022/08/10 01:58:49;;;;;;;3.28;1.38;;;24.60;65.00;;;;;;5031373;28;20121;-26
2022/08/10 02:01:20;;;;;;;3.58;1.40;;;24.60;65.10;;;;;;5031341;28;20029;-26
2022/08/10 02:03:49;;;;;;;2.00;1.40;;;24.60;65.10;;;;;;5031662;28;20105;-26
2022/08/10 02:06:16;;;;;;;3.88;1.65;;;24.60;65.10;;;;;;5031695;28;20022;-26
2022/08/10 02:08:44;;;;;;;6.00;1.50;;;24.60;65.20;;;;;;5031326;28;20083;-27
2022/08/10 02:11:11;;;;;;;5.50;1.77;;;24.50;65.20;;;;;;5031466;28;20032;-27
2022/08/10 02:13:39;;;;;;;2.28;1.42;;;24.50;65.40;;;;;;5031388;28;20525;-26
2022/08/10 02:16:05;;;;;;;3.58;1.30;;;24.50;65.40;;;;;;5031457;28;20479;-26
2022/08/10 02:18:32;;;;;;;2.33;1.20;;;24.50;65.50;;;;;;5031256;28;20500;-26
2022/08/10 02:21:02;;;;;;;4.43;1.05;;;24.50;65.50;;;;;;5031307;28;20033;-26
2022/08/10 02:23:31;;;;;;;1.52;1.20;;;24.50;65.60;;;;;;5031440;28;20029;-27
2022/08/10 02:26:00;;;;;;;2.65;1.40;;;24.40;65.50;;;;;;5031332;28;20026;-26
2022/08/10 02:28:31;;;;;;;4.10;1.58;;;24.40;65.50;;;;;;5031073;28;20048;-26
2022/08/10 02:31:27;;;;;;;2.55;1.27;;;24.40;65.70;;;;;;5031450;28;20060;-27
2022/08/10 02:33:55;;;;;;;2.58;1.45;;;24.40;65.70;;;;;;5018704;28;20568;-26
2022/08/10 02:36:23;;;;;;;2.72;1.40;;;24.40;65.80;;;;;;5034809;28;20025;-26
2022/08/10 02:38:52;;;;;;;1.52;1.00;;;24.40;65.80;;;;;;5034579;28;20022;-26
2022/08/10 02:41:48;;;;;;;2.22;1.00;;;24.40;65.80;;;;;;5034634;28;20506;-27
2022/08/10 02:44:34;;;;;;;1.92;1.10;;;24.30;65.80;;;;;;5028319;28;20045;-26
2022/08/10 02:47:38;;;;;;;3.45;1.33;;;24.30;65.90;;;;;;5034609;28;20047;-26
2022/08/10 02:50:12;;;;;;;1.80;1.17;;;24.30;65.90;;;;;;5032658;28;20095;-26
2022/08/10 02:52:43;;;;;;;4.25;1.33;;;24.30;66.00;;;;;;5034703;28;20033;-26
2022/08/10 02:55:32;;;;;;;4.60;1.20;;;24.30;66.00;;;;;;5034534;28;20021;-26
2022/08/10 02:58:05;;;;;;;1.42;0.93;;;24.30;66.10;;;;;;5034458;28;20422;-26
2022/08/10 03:00:32;;;;;;;2.53;1.17;;;24.20;66.20;;;;;;5034608;28;20028;-27
2022/08/10 03:03:00;;;;;;;5.40;1.15;;;24.20;66.30;;;;;;5034417;28;20101;-26
2022/08/10 03:05:26;;;;;;;3.72;1.17;;;24.20;66.30;;;;;;5034364;28;20079;-26
2022/08/10 03:07:58;;;;;;;2.15;1.30;;;24.20;66.40;;;;;;5034133;28;20026;-26
2022/08/10 03:10:29;;;;;;;4.85;1.50;;;24.20;66.50;;;;;;5034095;28;20033;-26
2022/08/10 03:12:59;;;;;;;2.08;1.00;;;24.20;66.50;;;;;;5034223;28;20087;-26
2022/08/10 03:15:28;;;;;;;1.98;1.17;;;24.10;66.50;;;;;;5034180;28;20030;-26
2022/08/10 03:17:55;;;;;;;5.00;1.27;;;24.10;66.50;;;;;;5034083;28;20021;-26
2022/08/10 03:20:22;;;;;;;3.53;1.17;;;24.10;66.60;;;;;;5034251;28;20032;-26
2022/08/10 03:22:49;;;;;;;2.47;1.05;;;24.10;66.70;;;;;;5034050;28;20025;-26
2022/08/10 03:25:20;;;;;;;5.85;1.38;;;24.10;66.80;;;;;;5033992;28;20471;-26
2022/08/10 03:27:47;;;;;;;2.35;1.30;;;24.10;66.80;;;;;;5033845;28;20032;-26
2022/08/10 03:30:13;;;;;;;2.22;1.23;;;24.10;67.00;;;;;;5033778;28;20094;-26
2022/08/10 03:32:39;;;;;;;2.25;1.08;;;24.10;66.90;;;;;;5033785;28;20025;-26
2022/08/10 03:35:06;;;;;;;2.53;1.25;;;24.00;66.90;;;;;;5033842;28;20037;-26
2022/08/10 03:37:32;;;;;;;1.92;1.10;;;24.00;67.00;;;;;;5033592;28;20025;-26
2022/08/10 03:39:58;;;;;;;3.83;1.20;;;24.00;67.00;;;;;;5033384;28;20044;-27
2022/08/10 03:42:26;;;;;;;3.28;1.20;;;24.00;66.90;;;;;;5033628;28;20018;-26
2022/08/10 03:44:52;;;;;;;3.50;1.30;;;24.00;67.00;;;;;;5033677;28;20160;-26
2022/08/10 03:47:20;;;;;;;1.45;1.17;;;24.00;67.90;;;;;;5032564;28;20048;-26
2022/08/10 03:49:49;;;;;;;1.98;1.20;;;24.00;67.20;;;;;;5033660;28;20025;-26
2022/08/10 03:52:16;;;;;;;3.25;1.30;;;23.90;67.10;;;;;;5033388;28;20033;-27
2022/08/10 03:54:42;;;;;;;3.30;1.25;;;23.90;67.30;;;;;;5033721;28;20044;-26
2022/08/10 03:57:08;;;;;;;28.85;2.70;;;23.90;67.30;;;;;;5033238;28;20032;-26
2022/08/10 03:59:35;;;;;;;24.58;7.68;;;23.90;68.10;;;;;;5033157;28;20025;-26
2022/08/10 04:02:05;;;;;;;14.93;4.78;;;23.90;67.40;;;;;;5033083;28;20018;-26
2022/08/10 04:04:31;;;;;;;6.15;3.22;;;23.90;67.40;;;;;;5033252;28;20013;-26
2022/08/10 04:06:59;;;;;;;4.28;2.33;;;23.90;67.50;;;;;;5033155;28;20032;-26
2022/08/10 04:09:30;;;;;;;2.08;1.67;;;23.80;67.50;;;;;;5032981;28;20026;-26
2022/08/10 04:11:56;;;;;;;3.00;1.35;;;23.80;67.60;;;;;;5032989;28;20482;-26
2022/08/10 04:14:21;;;;;;;2.47;1.20;;;23.80;67.70;;;;;;5033037;28;20056;-26
2022/08/10 04:16:47;;;;;;;5.63;1.40;;;23.80;67.80;;;;;;5033388;28;20033;-26
2022/08/10 04:19:18;;;;;;;2.08;1.05;;;23.80;67.80;;;;;;5032599;28;20554;-27
2022/08/10 04:21:51;;;;;;;8.15;1.25;;;23.70;67.80;;;;;;5015012;28;20026;-26
2022/08/10 04:24:24;;;;;;;2.15;1.13;;;23.80;67.80;;;;;;5032947;28;20014;-27
2022/08/10 04:26:50;;;;;;;4.38;1.10;;;23.80;67.90;;;;;;5032763;28;20051;-26
2022/08/10 04:29:16;;;;;;;5.00;1.20;;;23.70;67.90;;;;;;5032449;28;20108;-26
2022/08/10 04:31:43;;;;;;;4.47;1.30;;;23.70;68.00;;;;;;5032633;28;20391;-27
2022/08/10 04:34:10;;;;;;;2.95;1.27;;;23.70;68.00;;;;;;5032736;28;20659;-26
2022/08/10 04:36:37;;;;;;;4.38;1.50;;;23.70;68.10;;;;;;5032592;28;20017;-26
2022/08/10 04:39:03;;;;;;;3.20;1.35;;;23.70;69.00;;;;;;5032296;28;20069;-26
2022/08/10 04:41:28;;;;;;;4.13;1.10;;;23.60;68.20;;;;;;5032284;28;20368;-27
2022/08/10 04:43:54;;;;;;;5.70;1.45;;;23.60;68.30;;;;;;5032471;28;20021;-26
2022/08/10 04:46:20;;;;;;;2.40;1.30;;;23.60;68.30;;;;;;5032498;28;20498;-27
2022/08/10 04:48:45;;;;;;;4.40;1.30;;;23.60;68.40;;;;;;5032073;28;20041;-26
2022/08/10 04:51:14;;;;;;;3.60;1.40;;;23.60;68.50;;;;;;5032270;28;20033;-26
2022/08/10 04:53:40;;;;;;;3.45;1.20;;;23.60;68.50;;;;;;5032309;28;20026;-26
2022/08/10 04:56:07;;;;;;;3.78;1.27;;;23.50;68.60;;;;;;5032156;28;20035;-26
2022/08/10 04:58:34;;;;;;;3.92;1.20;;;23.50;68.60;;;;;;5032322;28;20478;-27
2022/08/10 05:00:59;;;;;;;1.77;1.00;;;23.50;68.70;;;;;;5032108;28;20087;-26
2022/08/10 05:03:25;;;;;;;3.88;1.27;;;23.50;68.80;;;;;;5032401;28;20025;-26
2022/08/10 05:05:51;;;;;;;4.05;1.33;;;23.50;68.80;;;;;;5032167;28;20040;-26
2022/08/10 05:08:16;;;;;;;6.25;1.30;;;23.50;68.90;;;;;;5032006;28;20252;-26
2022/08/10 05:10:42;;;;;;;3.78;1.02;;;23.50;69.00;;;;;;5031789;28;20057;-26
2022/08/10 05:13:08;;;;;;;5.28;1.35;;;23.50;69.10;;;;;;5032087;28;20109;-26
2022/08/10 05:15:33;;;;;;;4.18;1.45;;;23.50;69.20;;;;;;5032086;28;20029;-27
2022/08/10 05:17:59;;;;;;;5.38;1.40;;;23.50;69.30;;;;;;5031916;28;20033;-27
2022/08/10 05:20:25;;;;;;;4.50;1.13;;;23.50;69.40;;;;;;5031698;28;20037;-26
2022/08/10 05:22:50;;;;;;;1.65;1.00;;;23.50;69.50;;;;;;5031995;28;20101;-26
2022/08/10 05:25:18;;;;;;;5.88;1.20;;;23.50;69.60;;;;;;5031789;28;20079;-26
2022/08/10 05:27:45;;;;;;;2.72;1.15;;;23.50;69.70;;;;;;5031852;28;20027;-26
2022/08/10 05:30:17;;;;;;;4.70;1.20;;;23.50;69.80;;;;;;5031694;28;20029;-26
2022/08/10 05:32:43;;;;;;;8.13;1.48;;;23.50;69.90;;;;;;5031898;28;20022;-26
2022/08/10 05:35:08;;;;;;;3.83;1.10;;;23.50;70.10;;;;;;5031872;28;20029;-26
2022/08/10 05:37:34;;;;;;;3.10;1.35;;;23.50;70.30;;;;;;5031723;28;20494;-26
2022/08/10 05:40:03;;;;;;;7.03;1.30;;;23.50;70.40;;;;;;5031337;28;20033;-27
2022/08/10 05:42:29;;;;;;;3.10;1.30;;;23.50;70.50;;;;;;5031761;28;20064;-26
2022/08/10 05:44:55;;;;;;;4.80;1.60;;;23.50;70.70;;;;;;5031736;28;20029;-26
2022/08/10 05:47:21;;;;;;;4.20;1.50;;;23.50;71.20;;;;;;5031757;28;20022;-26
2022/08/10 05:49:47;;;;;;;6.53;1.90;;;23.50;70.80;;;;;;5054675;22;20053;-24
2022/08/10 05:52:15;;;;;;;6.35;1.95;;;23.50;70.90;;;;;;5031493;28;20097;-25
2022/08/10 05:54:41;;;;;;;5.43;1.58;;;23.50;71.00;;;;;;5031926;28;20082;-24
2022/08/10 05:57:07;;;;;;;7.30;1.70;;;23.50;71.10;;;;;;5031927;28;20021;-24
2022/08/10 05:59:35;;;;;;;7.22;1.70;;;23.50;71.30;;;;;;5031576;28;20033;-25
2022/08/10 06:02:03;;;;;;;3.95;1.50;;;23.60;71.50;;;;;;5031903;28;20021;-25
2022/08/10 06:04:37;;;;;;;4.85;1.50;;;23.50;71.60;;;;;;5031820;28;20049;-25
2022/08/10 06:07:04;;;;;;;6.15;1.48;;;23.50;71.70;;;;;;5031816;28;20093;-25
2022/08/10 06:09:31;;;;;;;4.10;1.50;;;23.60;71.90;;;;;;5032495;28;20029;-25
2022/08/10 06:11:58;;;;;;;4.88;1.40;;;23.60;72.00;;;;;;5035610;28;20018;-25
2022/08/10 06:17:12;;;;;;;4.65;1.70;;;23.60;72.20;;;;;;5036185;28;20398;-25
2022/08/10 06:19:38;;;;;;;2.35;1.05;;;23.60;72.20;;;;;;5035360;28;20036;-24
2022/08/10 06:22:05;;;;;;;4.25;1.40;;;23.60;72.30;;;;;;5035541;28;20026;-25
2022/08/10 06:24:36;;;;;;;2.58;1.30;;;23.60;72.50;;;;;;5035510;28;20067;-25
2022/08/10 06:27:02;;;;;;;3.13;1.30;;;23.70;72.50;;;;;;5035249;28;20021;-25
2022/08/10 06:29:32;;;;;;;2.70;1.35;;;23.70;72.60;;;;;;5035161;28;20069;-25
2022/08/10 06:31:59;;;;;;;3.35;1.25;;;23.70;72.60;;;;;;5035300;28;20040;-24
2022/08/10 06:34:36;;;;;;;3.78;1.17;;;23.70;72.70;;;;;;5017593;28;20022;-25
2022/08/10 06:37:04;;;;;;;4.35;1.30;;;23.70;72.90;;;;;;5017790;28;20025;-25
2022/08/10 06:39:30;;;;;;;2.60;1.33;;;23.80;73.10;;;;;;5034725;28;20421;-24
2022/08/10 06:42:06;;;;;;;5.30;1.45;;;23.80;73.20;;;;;;5035026;28;20045;-25
2022/08/10 06:44:43;;;;;;;5.63;1.30;;;23.80;73.20;;;;;;5035466;28;20386;-24
2022/08/10 06:47:12;;;;;;;9.20;1.33;;;23.80;73.20;;;;;;5035042;28;20471;-24
2022/08/10 06:49:37;;;;;;;7.53;1.67;;;23.90;73.20;;;;;;5034599;28;20124;-25
2022/08/10 06:52:07;;;;;;;10.57;1.70;;;23.90;73.40;;;;;;5034616;28;20030;-25
2022/08/10 06:54:35;;;;;;;5.43;1.42;;;23.80;73.40;;;;;;5034870;28;20022;-25
2022/08/10 06:57:01;;;;;;;4.78;1.58;;;23.90;73.20;;;;;;5034930;28;20029;-25
2022/08/10 06:59:35;;;;;;;4.20;1.35;;;24.00;72.90;;;;;;5034356;28;20486;-25
2022/08/10 07:02:14;;;;;;;7.68;1.30;;;24.10;72.50;;;;;;5016688;28;20120;-25
2022/08/10 07:04:50;;;;;;;5.95;1.70;;;24.20;72.10;;;;;;5034890;28;20036;-25
2022/08/10 07:07:24;;;;;;;5.43;1.40;;;24.40;71.90;;;;;;5034313;28;20033;-25
2022/08/10 07:09:51;;;;;;;3.42;1.30;;;24.50;71.60;;;;;;5034235;28;20026;-25
2022/08/10 07:12:20;;;;;;;6.13;1.60;;;24.60;71.40;;;;;;5034281;28;20022;-25
2022/08/10 07:14:47;;;;;;;2.63;1.20;;;24.60;71.00;;;;;;5016557;28;20028;-25
2022/08/10 07:17:17;;;;;;;4.70;1.30;;;24.70;70.90;;;;;;5034265;28;20026;-25
2022/08/10 07:19:47;;;;;;;2.75;1.45;;;24.70;70.70;;;;;;5034336;28;20035;-25
2022/08/10 07:22:15;;;;;;;3.42;1.10;;;24.80;70.70;;;;;;5029440;28;20476;-25
2022/08/10 07:24:42;;;;;;;5.78;1.40;;;24.80;70.50;;;;;;5033534;28;20486;-25
2022/08/10 07:27:10;;;;;;;1.95;1.15;;;24.90;70.40;;;;;;5034148;28;20488;-25
2022/08/10 07:29:36;;;;;;;6.25;1.30;;;24.90;70.30;;;;;;5033677;28;20503;-25
2022/08/10 07:32:04;;;;;;;2.50;1.23;;;24.90;70.20;;;;;;5033967;28;20034;-25
2022/08/10 07:34:31;;;;;;;4.15;1.42;;;25.00;70.20;;;;;;5033993;28;20495;-25
2022/08/10 07:37:03;;;;;;;4.72;1.15;;;25.00;70.10;;;;;;5034054;28;20025;-25
2022/08/10 07:39:35;;;;;;;3.85;1.30;;;25.00;70.00;;;;;;5033559;28;20051;-25
2022/08/10 07:42:03;;;;;;;4.40;1.33;;;25.00;69.90;;;;;;5034493;28;20025;-25
2022/08/10 07:44:32;;;;;;;1.63;1.10;;;25.00;69.90;;;;;;5033830;28;20570;-25
2022/08/10 07:47:00;;;;;;;3.75;1.00;;;25.10;69.90;;;;;;5033735;28;20064;-25
2022/08/10 07:49:29;;;;;;;2.40;1.13;;;25.10;69.70;;;;;;5033421;28;20028;-25
2022/08/10 07:51:57;;;;;;;4.25;1.45;;;25.10;69.70;;;;;;5015928;28;20021;-25
2022/08/10 07:54:26;;;;;;;4.47;1.58;;;25.10;69.60;;;;;;5015715;28;20052;-25
2022/08/10 07:56:57;;;;;;;4.50;1.25;;;25.20;69.60;;;;;;5033343;28;20026;-25
2022/08/10 07:59:45;;;;;;;3.80;1.20;;;25.20;69.60;;;;;;5033040;28;20171;-25
2022/08/10 08:02:22;;;;;;;1.80;0.90;;;25.20;69.60;;;;;;5033368;28;20031;-25
2022/08/10 08:04:48;;;;;;;1.08;0.90;;;25.20;69.40;;;;;;5033311;28;20037;-25
2022/08/10 08:07:17;;;;;;;3.47;1.20;;;25.20;69.30;;;;;;5029798;28;20136;-25
2022/08/10 08:09:45;;;;;;;2.22;1.00;;;25.30;69.30;;;;;;5032969;28;20041;-25
2022/08/10 08:12:12;;;;;;;1.95;0.90;;;25.30;69.20;;;;;;5033121;28;20084;-25
2022/08/10 08:14:41;;;;;;;2.88;1.00;;;25.40;69.20;;;;;;5033322;28;20033;-25
2022/08/10 08:17:08;;;;;;;5.00;1.27;;;25.40;69.10;;;;;;5033014;28;20033;-25
2022/08/10 08:19:35;;;;;;;4.30;1.30;;;25.50;69.10;;;;;;5032902;28;20029;-25
2022/08/10 08:22:02;;;;;;;1.70;1.08;;;25.50;69.00;;;;;;5033057;28;20467;-25
2022/08/10 08:24:30;;;;;;;3.72;1.20;;;25.50;69.00;;;;;;5033025;28;20079;-25
2022/08/10 08:26:58;;;;;;;1.70;0.93;;;25.50;69.00;;;;;;5033139;28;20104;-25
2022/08/10 08:29:24;;;;;;;1.23;0.80;;;25.50;68.90;;;;;;5032856;28;20035;-25
2022/08/10 08:31:51;;;;;;;2.47;1.10;;;25.50;68.90;;;;;;5032724;28;20474;-25
2022/08/10 08:34:18;;;;;;;1.80;0.93;;;25.50;68.90;;;;;;5032937;28;20024;-25
2022/08/10 08:36:44;;;;;;;1.10;0.75;;;25.50;68.80;;;;;;5032781;28;20021;-25
2022/08/10 08:39:12;;;;;;;2.40;0.80;;;25.50;68.80;;;;;;5032767;28;20029;-25
2022/08/10 08:41:47;;;;;;;2.60;1.00;;;25.60;68.80;;;;;;5032624;28;20402;-24
2022/08/10 08:44:18;;;;;;;8.38;1.13;;;25.60;68.60;;;;;;5032746;28;20430;-24
2022/08/10 08:46:47;;;;;;;10.82;1.30;;;25.60;66.50;;;;;;5014982;28;20022;-24
2022/08/10 08:49:40;;;;;;;3.60;1.50;;;25.60;66.80;;;;;;5032190;28;20560;-24
2022/08/10 08:52:34;;;;;;;9.18;1.13;;;25.80;67.00;;;;;;5032690;28;20030;-24
2022/08/10 08:55:03;;;;;;;3.40;1.23;;;25.90;66.90;;;;;;5032687;28;20025;-24
2022/08/10 08:57:50;;;;;;;5.55;1.02;;;25.90;66.80;;;;;;5032482;28;20049;-24
2022/08/10 09:00:53;;;;;;;6.63;1.30;;;26.00;66.90;;;;;;5032738;28;20053;-24
2022/08/10 09:03:48;;;;;;;5.05;1.20;;;26.00;66.90;;;;;;5015220;28;20025;-24
2022/08/10 09:06:43;;;;;;;4.05;1.15;;;26.00;67.00;;;;;;5032775;28;20032;-24
2022/08/10 09:09:28;;;;;;;3.58;0.95;;;26.00;67.00;;;;;;5014500;28;20028;-24
2022/08/10 09:11:56;;;;;;;3.63;1.10;;;26.00;67.10;;;;;;5032420;28;20104;-25
2022/08/10 09:15:01;;;;;;;3.40;0.90;;;26.10;67.10;;;;;;5032262;28;20111;-24
2022/08/10 09:17:31;;;;;;;;;;;26.00;67.10;;;;;;4952385;29;20472;-24
2022/08/10 09:20:07;;;;;;;2.25;1.00;;;26.10;67.10;;;;;;5017512;28;19916;-24
2022/08/10 09:22:49;;;;;;;1.88;0.98;;;26.10;67.10;;;;;;5014473;28;20029;-24
2022/08/10 09:25:22;;;;;;;3.10;0.85;;;26.10;67.10;;;;;;5032168;28;20494;-24
2022/08/10 09:28:05;;;;;;;5.30;1.10;;;26.10;67.00;;;;;;5014302;28;20090;-24
2022/08/10 09:30:39;;;;;;;4.65;0.85;;;26.10;67.00;;;;;;5031945;28;20544;-24
2022/08/10 09:33:09;;;;;;;;;;;26.10;66.90;;;;;;5032192;28;20109;-24
2022/08/10 09:35:35;;;;;;;2.95;0.95;;;26.10;66.80;;;;;;5032209;28;19905;-24
2022/08/10 09:38:23;;;;;;;1.67;0.98;;;26.20;66.80;;;;;;5031991;28;20029;-24
2022/08/10 09:41:16;;;;;;;4.50;1.08;;;26.20;66.90;;;;;;5032117;28;20033;-24
2022/08/10 09:44:11;;;;;;;1.52;0.82;;;26.20;66.70;;;;;;5031774;28;20045;-24
2022/08/10 09:47:11;;;;;;;4.47;1.00;;;26.20;66.70;;;;;;5035816;28;20502;-24
2022/08/10 09:49:51;;;;;;;2.17;0.80;;;26.20;61.90;;;;;;5035267;28;20442;-24
2022/08/10 09:52:42;;;;;;;1.40;0.90;;;26.20;62.70;;;;;;5036210;28;20171;-24
2022/08/10 09:55:39;;;;;;;2.45;0.90;;;26.20;63.20;;;;;;5036073;28;20332;-24
2022/08/10 09:58:35;;;;;;;1.33;0.80;;;26.20;63.60;;;;;;5018028;28;20033;-24
2022/08/10 10:01:22;;;;;;;3.22;1.00;;;26.30;64.00;;;;;;5035777;28;20026;-23
2022/08/10 10:03:59;;;;;;;2.33;0.95;;;26.20;64.00;;;;;;5035903;28;20017;-24
2022/08/10 10:06:41;;;;;;;2.03;1.00;;;26.20;64.30;;;;;;5035951;28;20031;-24
2022/08/10 10:09:14;;;;;;;2.42;0.90;;;26.30;64.40;;;;;;5017663;28;20105;-24
2022/08/10 10:12:05;;;;;;;2.27;0.83;;;26.30;64.50;;;;;;5035562;28;20022;-24
2022/08/10 10:15:19;;;;;;;1.40;0.82;;;26.30;64.40;;;;;;5035647;28;20049;-23
2022/08/10 10:17:56;;;;;;;2.03;0.90;;;26.40;64.60;;;;;;5017927;28;20068;-24
2022/08/10 10:20:38;;;;;;;1.48;0.82;;;26.40;64.60;;;;;;5017673;28;20033;-24
2022/08/10 10:23:35;;;;;;;1.80;0.80;;;26.50;64.70;;;;;;5035540;28;20068;-24
2022/08/10 10:26:19;;;;;;;5.38;0.93;;;26.50;64.80;;;;;;5019481;28;20112;-24
2022/08/10 10:29:20;;;;;;;2.38;0.80;;;26.50;64.80;;;;;;5035316;28;20092;-24
2022/08/10 10:31:57;;;;;;;2.75;1.00;;;26.50;64.80;;;;;;5012179;28;20029;-24
2022/08/10 10:34:58;;;;;;;5.43;0.90;;;26.60;61.40;;;;;;5017541;28;20099;-24
2022/08/10 10:37:25;;;;;;;6.30;1.38;;;26.60;60.50;;;;;;5035082;28;20069;-24
2022/08/10 10:39:56;;;;;;;11.35;1.13;;;26.60;61.00;;;;;;5017034;28;20036;-24
2022/08/10 10:42:42;;;;;;;7.00;0.88;;;26.60;61.40;;;;;;5035230;28;20045;-24
2022/08/10 10:45:19;;;;;;;4.80;0.90;;;26.60;61.80;;;;;;5035171;28;20054;-24
2022/08/10 10:48:09;;;;;;;5.80;1.25;;;26.60;62.00;;;;;;5034705;28;20017;-24
2022/08/10 10:51:07;;;;;;;2.50;1.10;;;26.60;62.30;;;;;;5034779;28;20499;-24
2022/08/10 10:53:38;;;;;;;8.50;1.02;;;26.60;62.50;;;;;;5033047;28;20411;-24
2022/08/10 10:56:10;;;;;;;5.22;1.65;;;26.60;62.70;;;;;;5003951;28;20402;-24
2022/08/10 10:59:14;;;;;;;3.75;0.88;;;26.60;62.90;;;;;;5022475;28;20061;-24
2022/08/10 11:02:17;;;;;;;2.75;1.05;;;26.60;62.90;;;;;;5018770;28;20028;-24
2022/08/10 11:04:55;;;;;;;4.05;0.90;;;26.70;63.20;;;;;;5018053;28;20018;-25
2022/08/10 11:07:27;;;;;;;4.35;1.08;;;26.70;63.20;;;;;;5034812;28;20025;-24
2022/08/10 11:10:09;;;;;;;2.13;1.00;;;26.70;63.30;;;;;;5034391;28;20545;-24
2022/08/10 11:12:52;;;;;;;6.07;1.17;;;26.70;63.30;;;;;;5034345;28;20087;-24
2022/08/10 11:15:29;;;;;;;2.88;0.90;;;26.70;63.40;;;;;;5021036;28;20026;-24
2022/08/10 11:18:07;;;;;;;3.20;0.88;;;26.70;63.50;;;;;;5016894;28;20048;-24
2022/08/10 11:20:53;;;;;;;4.82;0.95;;;26.70;63.50;;;;;;5034623;28;20105;-25
2022/08/10 11:23:35;;;;;;;2.28;0.98;;;26.70;63.60;;;;;;5032637;28;20021;-24
2022/08/10 11:26:26;;;;;;;2.13;0.98;;;26.70;63.60;;;;;;5032307;28;20034;-24
2022/08/10 11:29:08;;;;;;;4.55;0.80;;;26.80;63.70;;;;;;5033519;28;20034;-25
2022/08/10 11:32:09;;;;;;;1.63;0.80;;;26.70;63.60;;;;;;5034300;28;20064;-24
2022/08/10 11:34:46;;;;;;;3.65;0.90;;;26.80;63.70;;;;;;4986632;28;20399;-24
2022/08/10 11:37:28;;;;;;;3.00;0.90;;;26.80;63.80;;;;;;5014496;28;20029;-24
2022/08/10 11:40:20;;;;;;;4.97;0.90;;;26.80;63.90;;;;;;5014130;28;20029;-24
2022/08/10 11:42:52;;;;;;;4.10;0.93;;;26.80;63.80;;;;;;5014426;28;20057;-24
2022/08/10 11:45:30;;;;;;;1.70;0.80;;;26.80;63.90;;;;;;5018181;28;20445;-24
2022/08/10 11:48:10;;;;;;;3.42;0.95;;;26.80;63.90;;;;;;5034105;28;20021;-39
2022/08/10 11:50:42;;;;;;;1.45;0.70;;;26.80;64.00;;;;;;5027959;28;20029;-25
2022/08/10 11:53:44;;;;;;;1.85;0.70;;;26.80;64.00;;;;;;5014040;28;20213;-25
2022/08/10 11:56:15;;;;;;;4.00;0.77;;;26.90;64.10;;;;;;5003584;28;20036;-25
2022/08/10 12:01:31;;;;;;;1.40;0.80;;;26.80;64.10;;;;;;5031964;28;20124;-25
2022/08/10 12:04:06;;;;;;;1.02;0.70;;;26.80;64.10;;;;;;5033366;28;20547;-25
2022/08/10 12:06:34;;;;;;;3.30;0.88;;;26.80;64.10;;;;;;5015648;28;20068;-25
2022/08/10 12:09:00;;;;;;;1.20;0.80;;;26.90;64.10;;;;;;5015019;28;20098;-25
2022/08/10 12:11:28;;;;;;;2.20;0.85;;;26.90;64.10;;;;;;5033431;28;20068;-25
2022/08/10 12:14:05;;;;;;;1.50;0.80;;;26.90;64.10;;;;;;5033597;28;20593;-25
2022/08/10 12:16:37;;;;;;;2.40;0.80;;;26.90;64.10;;;;;;5033398;28;20575;-24
2022/08/10 12:19:02;;;;;;;1.60;0.63;;;26.90;64.10;;;;;;5033221;28;20029;-25
2022/08/10 12:21:39;;;;;;;1.63;0.75;;;26.90;64.20;;;;;;5033122;28;20029;-24
2022/08/10 12:24:17;;;;;;;1.58;0.82;;;26.90;64.10;;;;;;5015615;28;20025;-24
2022/08/10 12:27:19;;;;;;;1.77;0.80;;;26.90;64.10;;;;;;5033314;28;20018;-24
2022/08/10 12:29:54;;;;;;;1.10;0.77;;;27.00;64.30;;;;;;4991663;28;20038;-25
2022/08/10 12:32:23;;;;;;;2.25;0.90;;;26.90;64.30;;;;;;5033155;28;20120;-25
2022/08/10 12:35:26;;;;;;;3.03;0.80;;;26.90;64.20;;;;;;5033122;28;20396;-25
2022/08/10 12:38:07;;;;;;;1.40;0.82;;;26.90;64.20;;;;;;4992367;28;20029;-24
2022/08/10 12:40:43;;;;;;;1.58;0.73;;;27.00;64.30;;;;;;5032687;28;20482;-24
2022/08/10 12:43:31;;;;;;;1.65;0.55;;;26.90;64.20;;;;;;5033104;28;20033;-25
2022/08/10 12:46:14;;;;;;;0.98;0.65;;;27.00;64.30;;;;;;5032981;28;20125;-24
2022/08/10 12:48:56;;;;;;;2.63;0.80;;;27.00;64.30;;;;;;5032506;28;20072;-24
2022/08/10 12:51:23;;;;;;;2.60;0.75;;;26.90;64.20;;;;;;5020663;28;20077;-25
2022/08/10 12:54:12;;;;;;;2.05;0.80;;;26.90;64.20;;;;;;5013475;28;20030;-24
2022/08/10 12:56:45;;;;;;;2.88;0.80;;;27.00;64.20;;;;;;5032567;28;20021;-24
2022/08/10 12:59:13;;;;;;;2.33;0.90;;;27.00;64.20;;;;;;5032726;28;20063;-24
2022/08/10 13:01:40;;;;;;;2.55;0.95;;;27.00;64.20;;;;;;5033004;28;20120;-24
2022/08/10 13:04:14;;;;;;;2.90;0.65;;;26.90;64.10;;;;;;5015516;28;20049;-24
2022/08/10 13:06:45;;;;;;;1.10;0.70;;;27.00;64.20;;;;;;5032906;28;20096;-25
2022/08/10 13:09:20;;;;;;;1.70;0.80;;;27.00;64.20;;;;;;5032690;28;20036;-24
2022/08/10 13:12:07;;;;;;;3.10;0.70;;;27.00;64.20;;;;;;5032447;28;20025;-24
2022/08/10 13:15:02;;;;;;;1.02;0.73;;;27.00;64.20;;;;;;5033196;28;20041;-24
2022/08/10 13:17:32;;;;;;;1.15;0.73;;;27.00;65.00;;;;;;5032556;28;20053;-24
2022/08/10 13:20:03;;;;;;;1.48;0.80;;;27.00;64.20;;;;;;5029887;28;20101;-24
2022/08/10 13:22:31;;;;;;;1.50;0.52;;;27.00;64.30;;;;;;5014986;28;20442;-24
2022/08/10 13:25:01;;;;;;;0.70;0.52;;;27.00;64.20;;;;;;4995159;28;20025;-24